Time;durP1;ratioP1;P1;durP2;ratioP2;P2;SDS_P1;SDS_P2;PMS_P1;PMS_P2;Temp;Humidity;BMP_temperature;BMP_pressure;BME280_temperature;BME280_humidity;BME280_pressure;Samples;Min_cycle;Max_cycle;Signal;HPM_P1;HPM_P2
2023/08/26 00:01:24;;;;;;;1999.90;999.90;;;;;;;17.78;100.00;100847.00;10459882;28;20064;-67
2023/08/26 00:06:26;;;;;;;1999.90;999.90;;;;;;;17.70;100.00;100836.22;10459940;28;20053;-68
2023/08/26 00:11:29;;;;;;;1999.90;999.90;;;;;;;17.80;100.00;100831.81;10441482;28;20071;-68
2023/08/26 00:16:31;;;;;;;1999.90;999.90;;;;;;;17.78;100.00;100842.53;10458890;28;20577;-67
2023/08/26 00:21:33;;;;;;;1999.90;999.90;;;;;;;17.99;100.00;100816.03;10459429;28;20048;-68
2023/08/26 00:26:36;;;;;;;1999.90;999.90;;;;;;;17.99;100.00;100831.91;10441600;28;20055;-68
2023/08/26 00:31:38;;;;;;;1999.90;999.90;;;;;;;17.88;100.00;100820.59;10440754;28;20048;-67
2023/08/26 00:36:41;;;;;;;1999.90;999.90;;;;;;;17.76;100.00;100820.66;10458755;28;20056;-68
2023/08/26 00:41:43;;;;;;;1999.90;999.90;;;;;;;17.85;100.00;100826.94;10458622;28;20124;-67
2023/08/26 00:46:46;;;;;;;1999.90;999.90;;;;;;;17.92;100.00;100825.50;10458407;28;20045;-68
2023/08/26 00:51:49;;;;;;;1999.90;999.90;;;;;;;17.87;100.00;100826.84;10458233;28;20099;-68
2023/08/26 00:56:51;;;;;;;1999.90;999.90;;;;;;;17.74;100.00;100816.47;10439679;28;20501;-68
2023/08/26 01:01:54;;;;;;;1999.90;999.90;;;;;;;17.68;100.00;100830.25;10457409;28;20059;-67
2023/08/26 01:06:56;;;;;;;1999.90;999.90;;;;;;;17.58;100.00;100824.91;10440129;28;20056;-67
2023/08/26 01:12:23;;;;;;;1999.90;999.90;;;;;;;17.51;100.00;100821.94;10457617;28;20048;-67
2023/08/26 01:17:26;;;;;;;1999.90;999.90;;;;;;;17.29;100.00;100840.66;10439473;28;20128;-68
2023/08/26 01:22:29;;;;;;;1999.90;999.90;;;;;;;17.18;100.00;100838.91;10439779;28;20049;-67
2023/08/26 01:27:31;;;;;;;1999.90;999.90;;;;;;;16.68;100.00;100831.56;10439473;28;20055;-67
2023/08/26 01:32:49;;;;;;;1999.90;999.90;;;;;;;16.76;100.00;100831.78;10456233;28;20047;-67
2023/08/26 01:37:52;;;;;;;1999.90;999.90;;;;;;;16.63;100.00;100837.22;10438684;28;20418;-67
2023/08/26 01:42:58;;;;;;;1999.90;999.90;;;;;;;16.56;100.00;100828.13;10438925;28;20124;-67
2023/08/26 01:48:01;;;;;;;1999.90;999.90;;;;;;;16.06;100.00;100830.44;10456048;28;20482;-67
2023/08/26 01:53:03;;;;;;;1999.90;999.90;;;;;;;16.32;100.00;100834.47;10455831;28;20041;-67
2023/08/26 01:58:05;;;;;;;1999.90;999.90;;;;;;;16.25;100.00;100825.34;10439062;28;20059;-67
2023/08/26 02:03:08;;;;;;;1999.90;999.90;;;;;;;16.21;100.00;100842.41;10437958;28;20053;-67
2023/08/26 02:08:10;;;;;;;1999.90;999.90;;;;;;;16.15;100.00;100829.69;10438044;28;20523;-67
2023/08/26 02:13:13;;;;;;;1999.90;999.90;;;;;;;15.84;100.00;100832.13;10455509;28;20053;-67
2023/08/26 02:18:15;;;;;;;1999.90;999.90;;;;;;;16.02;100.00;100839.56;10462701;22;20052;-69
2023/08/26 02:23:18;;;;;;;1999.90;999.90;;;;;;;15.92;100.00;100828.88;10456073;28;20060;-69
2023/08/26 02:28:20;;;;;;;1999.90;999.90;;;;;;;15.67;100.00;100835.22;10457724;28;20193;-69
2023/08/26 02:33:24;;;;;;;1999.90;999.90;;;;;;;16.06;100.00;100830.44;10463016;28;20378;-69
2023/08/26 02:38:26;;;;;;;1999.90;999.90;;;;;;;15.76;100.00;100824.81;10446190;28;20048;-69
2023/08/26 02:43:29;;;;;;;1999.90;999.90;;;;;;;15.75;100.00;100830.19;10463333;28;20045;-69
2023/08/26 02:48:31;;;;;;;1999.90;999.90;;;;;;;15.26;100.00;100841.91;10463100;28;20082;-69
2023/08/26 02:53:34;;;;;;;1999.90;999.90;;;;;;;15.40;100.00;100847.81;10445398;28;20045;-69
2023/08/26 02:58:36;;;;;;;1999.90;999.90;;;;;;;15.19;100.00;100850.28;10462113;28;20059;-69
2023/08/26 03:03:38;;;;;;;1999.90;999.90;;;;;;;15.19;100.00;100855.56;10461892;28;20413;-69
2023/08/26 03:08:41;;;;;;;1999.90;999.90;;;;;;;15.44;100.00;100852.84;10461715;28;20417;-69
2023/08/26 03:13:43;;;;;;;1999.90;999.90;;;;;;;15.06;100.00;100854.81;10461465;28;20127;-69
2023/08/26 03:18:45;;;;;;;1999.90;999.90;;;;;;;14.98;100.00;100863.31;10443512;28;20421;-69
2023/08/26 03:23:48;;;;;;;1999.90;999.90;;;;;;;14.88;100.00;100856.19;10461776;28;20059;-69
2023/08/26 03:28:50;;;;;;;1999.90;999.90;;;;;;;15.09;100.00;100854.56;10443890;28;20049;-69
2023/08/26 03:33:52;;;;;;;1999.90;999.90;;;;;;;15.05;100.00;100853.13;10461272;28;20049;-69
2023/08/26 03:38:55;;;;;;;1999.90;999.90;;;;;;;14.65;100.00;100856.94;10460091;28;20504;-68
2023/08/26 03:43:58;;;;;;;1999.90;999.90;;;;;;;14.66;100.00;100861.28;10461028;28;20077;-69
2023/08/26 03:49:00;;;;;;;1999.90;999.90;;;;;;;14.92;100.00;100857.66;10460128;28;20569;-69
2023/08/26 03:54:03;;;;;;;1999.90;999.90;;;;;;;14.86;100.00;100872.09;10459831;28;20049;-69
2023/08/26 03:59:05;;;;;;;1999.90;999.90;;;;;;;14.80;100.00;100883.97;10460386;28;20083;-69
2023/08/26 04:04:07;;;;;;;1999.90;999.90;;;;;;;14.31;100.00;100880.44;10459586;28;20401;-69
2023/08/26 04:09:10;;;;;;;1999.90;999.90;;;;;;;14.67;100.00;100877.91;10459395;28;20560;-69
2023/08/26 04:14:13;;;;;;;1999.90;999.90;;;;;;;14.17;100.00;100875.34;10441492;28;20128;-69
2023/08/26 04:19:16;;;;;;;1999.90;999.90;;;;;;;14.62;100.00;100880.03;10458842;28;20061;-69
2023/08/26 04:24:18;;;;;;;1999.90;999.90;;;;;;;14.49;100.00;100888.81;10459424;28;20048;-69
2023/08/26 04:29:20;;;;;;;1999.90;999.90;;;;;;;14.24;100.00;100899.41;10441488;28;20048;-69
2023/08/26 04:34:23;;;;;;;1999.90;999.90;;;;;;;14.02;100.00;100898.31;10441292;28;20128;-69
2023/08/26 04:39:25;;;;;;;1999.90;999.90;;;;;;;14.06;100.00;100904.22;10458783;28;20124;-69
2023/08/26 04:44:27;;;;;;;1999.90;999.90;;;;;;;13.97;100.00;100913.59;10457979;28;20051;-69
2023/08/26 04:49:31;;;;;;;1999.90;999.90;;;;;;;14.43;100.00;100912.97;10440295;28;20063;-69
2023/08/26 04:54:34;;;;;;;1999.90;999.90;;;;;;;14.26;100.00;100911.53;10440246;28;20045;-69
2023/08/26 04:59:37;;;;;;;1999.90;999.90;;;;;;;14.11;100.00;100920.53;10458021;28;20076;-69
2023/08/26 05:04:39;;;;;;;1999.90;999.90;;;;;;;13.99;100.00;100935.38;10457214;28;20405;-69
2023/08/26 05:09:42;;;;;;;1999.90;999.90;;;;;;;14.08;100.00;100933.91;10457709;28;20052;-69
2023/08/26 05:14:44;;;;;;;1999.90;999.90;;;;;;;13.78;100.00;100953.47;10439568;28;20057;-69
2023/08/26 05:19:47;;;;;;;1999.90;999.90;;;;;;;14.29;100.00;100942.09;10423518;28;20132;-69
2023/08/26 05:24:49;;;;;;;1999.90;999.90;;;;;;;14.17;100.00;100951.69;10438966;28;20049;-69
2023/08/26 05:29:52;;;;;;;1999.90;999.90;;;;;;;14.19;100.00;100956.81;10457060;28;20083;-69
2023/08/26 05:34:55;;;;;;;1999.90;999.90;;;;;;;14.11;100.00;100955.56;10456888;28;20051;-69
2023/08/26 05:39:57;;;;;;;1999.90;999.90;;;;;;;13.98;100.00;100962.63;10456830;28;20124;-69
2023/08/26 05:45:00;;;;;;;1999.90;999.90;;;;;;;14.54;100.00;100962.25;10456123;28;20045;-69
2023/08/26 05:50:03;;;;;;;1999.90;999.90;;;;;;;14.22;100.00;100961.88;10422111;28;20056;-69
2023/08/26 05:55:07;;;;;;;1999.90;999.90;;;;;;;14.37;100.00;100952.06;10456495;28;20051;-69
2023/08/26 06:00:10;;;;;;;1999.90;999.90;;;;;;;14.42;100.00;100936.78;10438835;28;20045;-69
2023/08/26 06:05:13;;;;;;;1999.90;999.90;;;;;;;14.41;100.00;100937.75;10463857;28;20056;-69
2023/08/26 06:10:16;;;;;;;1999.90;999.90;;;;;;;14.64;100.00;100944.88;10464056;28;20413;-68
2023/08/26 06:15:18;;;;;;;1999.90;999.90;;;;;;;14.73;100.00;100940.72;10445923;28;20114;-68
2023/08/26 06:20:22;;;;;;;1999.90;999.90;;;;;;;14.72;100.00;100948.72;10464303;28;20049;-68
2023/08/26 06:25:24;;;;;;;1999.90;999.90;;;;;;;14.62;100.00;100940.66;10463408;28;20454;-69
2023/08/26 06:30:27;;;;;;;1999.90;999.90;;;;;;;14.62;100.00;100945.91;10463234;28;20541;-69
2023/08/26 06:35:29;;;;;;;1999.90;999.90;;;;;;;14.89;100.00;100945.69;10446072;28;20045;-69
2023/08/26 06:40:31;;;;;;;1999.90;999.90;;;;;;;14.72;100.00;100957.47;10445925;28;20053;-69
2023/08/26 06:45:34;;;;;;;1999.90;999.90;;;;;;;14.91;100.00;100956.13;10463289;28;20048;-69
2023/08/26 06:50:36;;;;;;;1999.90;999.90;;;;;;;15.12;100.00;100944.00;10462681;28;20049;-68
2023/08/26 06:55:38;;;;;;;1999.90;999.90;;;;;;;15.05;100.00;100943.63;10462807;28;20057;-68
2023/08/26 07:00:41;;;;;;;1999.90;999.90;;;;;;;15.08;100.00;100957.53;10462663;28;20045;-68
2023/08/26 07:05:45;;;;;;;1999.90;999.90;;;;;;;15.42;100.00;100956.69;10444872;28;20045;-69
2023/08/26 07:10:47;;;;;;;1999.90;999.90;;;;;;;15.42;100.00;100948.78;10444722;28;20051;-68
2023/08/26 07:15:50;;;;;;;1999.90;999.90;;;;;;;15.66;100.00;100947.03;10443178;28;20061;-68
2023/08/26 07:20:52;;;;;;;1999.90;999.90;;;;;;;15.81;100.00;100942.44;10444232;28;20080;-68
2023/08/26 07:25:55;;;;;;;1999.90;999.90;;;;;;;16.16;100.00;100929.94;10461687;28;20055;-68
2023/08/26 07:31:02;;;;;;;1999.90;999.90;;;;;;;16.37;100.00;100928.34;10443911;28;20056;-69
2023/08/26 07:36:09;;;;;;;1999.90;999.90;;;;;;;16.89;100.00;100927.66;10443594;28;20044;-69
2023/08/26 07:41:12;;;;;;;1999.90;999.90;;;;;;;17.08;95.50;100928.78;10461114;28;20053;-69
2023/08/26 07:46:15;;;;;;;1999.90;999.90;;;;;;;17.81;92.95;100929.66;10460858;28;20045;-69
2023/08/26 07:51:21;;;;;;;1999.90;999.90;;;;;;;18.63;89.21;100932.34;10460805;28;20060;-69
2023/08/26 07:56:23;;;;;;;1999.90;999.90;;;;;;;18.74;88.05;100940.16;10460534;28;20052;-69
2023/08/26 08:01:26;;;;;;;1999.90;999.90;;;;;;;18.36;85.17;100953.22;10459690;28;20401;-69
2023/08/26 08:06:28;;;;;;;1999.90;999.90;;;;;;;18.61;85.13;100959.00;10460188;28;20059;-69
2023/08/26 08:11:30;;;;;;;1999.90;999.90;;;;;;;19.08;85.04;100959.22;10459882;28;20053;-77
2023/08/26 08:16:33;;;;;;;1999.90;999.90;;;;;;;19.46;81.43;100968.13;10459388;28;20133;-76
2023/08/26 08:21:35;;;;;;;1999.90;999.90;;;;;;;20.30;79.35;100958.53;10459667;28;20049;-76
2023/08/26 08:26:37;;;;;;;1999.90;999.90;;;;;;;19.93;78.52;100962.03;10441749;28;20052;-76
2023/08/26 08:31:40;;;;;;;1999.90;999.90;;;;;;;20.63;77.46;100958.09;10458450;28;20401;-76
2023/08/26 08:36:42;;;;;;;1999.90;999.90;;;;;;;20.54;78.60;100965.09;10458743;28;20049;-76
2023/08/26 08:41:49;;;;;;;1999.90;999.90;;;;;;;20.52;76.07;100959.94;10458916;28;20049;-77
2023/08/26 08:46:51;;;;;;;1999.90;999.90;;;;;;;21.11;73.86;100963.06;10457937;28;20045;-77
2023/08/26 08:51:55;;;;;;;1999.90;999.90;;;;;;;20.41;74.49;100954.84;10458406;28;20128;-77
2023/08/26 08:56:58;;;;;;;1999.90;999.90;;;;;;;20.59;76.16;100960.19;10440434;28;20067;-76
2023/08/26 09:02:00;;;;;;;1999.90;999.90;;;;;;;21.31;74.44;100957.56;10457334;28;20049;-77
2023/08/26 09:07:04;;;;;;;1999.90;999.90;;;;;;;21.40;70.56;100958.47;10457793;28;20072;-77
2023/08/26 09:12:07;;;;;;;1999.90;999.90;;;;;;;22.33;71.93;100957.91;10439360;28;20554;-76
2023/08/26 09:17:19;;;;;;;1999.90;999.90;;;;;;;22.91;71.10;100958.84;10456836;28;20049;-76
2023/08/26 09:22:29;;;;;;;1999.90;999.90;;;;;;;22.88;66.74;100957.38;10423207;28;20482;-70
2023/08/26 09:27:40;;;;;;;1999.90;999.90;;;;;;;23.12;66.36;100950.41;10438892;28;20383;-69
2023/08/26 09:32:45;;;;;;;1999.90;999.90;;;;;;;23.78;67.35;100948.47;10457075;28;20102;-69
2023/08/26 09:37:55;;;;;;;1999.90;999.90;;;;;;;24.10;66.47;100963.59;10438738;28;20410;-70
2023/08/26 09:43:03;;;;;;;1999.90;999.90;;;;;;;23.11;69.63;100956.72;10438747;28;20048;-70
2023/08/26 09:48:07;;;;;;;1999.90;999.90;;;;;;;24.46;67.54;100947.06;10456104;28;20387;-70
2023/08/26 09:53:10;;;;;;;1999.90;999.90;;;;;;;23.50;64.30;100956.03;10439029;28;20057;-70
2023/08/26 09:58:12;;;;;;;1999.90;999.90;;;;;;;23.16;66.96;100959.75;10456487;28;20045;-70
2023/08/26 10:03:17;;;;;;;1999.90;999.90;;;;;;;24.55;62.88;100955.91;10456974;28;20144;-69
2023/08/26 10:08:25;;;;;;;1999.90;999.90;;;;;;;24.16;63.06;100970.13;10438166;28;20493;-69
2023/08/26 10:13:28;;;;;;;1999.90;999.90;;;;;;;23.65;67.02;100969.56;10438566;28;20060;-69
2023/08/26 10:18:56;;;;;;;1999.90;999.90;;;;;;;25.91;61.01;100948.09;10455876;28;20087;-70
2023/08/26 10:23:59;;;;;;;1999.90;999.90;;;;;;;25.35;60.86;100954.69;10438250;28;20049;-70
2023/08/26 10:29:01;;;;;;;1999.90;999.90;;;;;;;26.80;58.69;100945.28;10438197;28;20044;-70
2023/08/26 10:34:07;;;;;;;1999.90;999.90;;;;;;;24.77;61.10;100956.13;10438076;28;20055;-70
2023/08/26 10:39:19;;;;;;;1999.90;999.90;;;;;;;23.62;62.38;100960.06;10455674;28;20064;-70
2023/08/26 10:44:30;;;;;;;1999.90;999.90;;;;;;;22.86;66.77;100958.50;10455033;28;20053;-70
2023/08/26 10:49:36;;;;;;;1999.90;999.90;;;;;;;23.33;63.98;100957.91;10458240;28;20127;-70
2023/08/26 10:54:38;;;;;;;1999.90;999.90;;;;;;;22.58;65.32;100961.47;10445487;28;20072;-70
2023/08/26 10:59:42;;;;;;;1999.90;999.90;;;;;;;24.98;61.06;100955.47;10445079;28;20082;-70
2023/08/26 11:04:45;;;;;;;1999.90;999.90;;;;;;;25.35;58.88;100954.69;10444318;28;20041;-70
2023/08/26 11:09:48;;;;;;;1999.90;999.90;;;;;;;23.78;63.67;100947.66;10444072;28;20402;-70
2023/08/26 11:14:50;;;;;;;1999.90;999.90;;;;;;;22.92;64.42;100940.00;10461243;28;20075;-71
2023/08/26 11:19:52;;;;;;;1999.90;999.90;;;;;;;24.34;58.03;100945.78;10462091;28;20060;-70
2023/08/26 11:24:56;;;;;;;1999.90;999.90;;;;;;;26.71;55.75;100932.97;10443712;28;20478;-71
2023/08/26 11:29:58;;;;;;;1999.90;999.90;;;;;;;24.91;56.87;100939.28;10444085;28;20052;-71
2023/08/26 11:35:00;;;;;;;1999.90;999.90;;;;;;;25.51;57.43;100936.78;10460752;28;20156;-71
2023/08/26 11:40:06;;;;;;;1999.90;999.90;;;;;;;24.22;59.08;100945.34;10443601;28;20057;-71
2023/08/26 11:45:10;;;;;;;1999.90;999.90;;;;;;;26.15;55.82;100938.94;10461086;28;20131;-71
2023/08/26 11:50:12;;;;;;;1999.90;999.90;;;;;;;24.84;58.72;100928.44;10442497;28;20056;-71
2023/08/26 11:55:14;;;;;;;1999.90;999.90;;;;;;;25.45;58.78;100938.34;10460652;28;20131;-71
2023/08/26 12:00:17;;;;;;;1999.90;999.90;;;;;;;26.15;54.15;100941.63;10442465;28;20049;-71
2023/08/26 12:05:20;;;;;;;1999.90;999.90;;;;;;;24.21;56.04;100945.50;10459659;28;20138;-72
2023/08/26 12:10:23;;;;;;;1999.90;999.90;;;;;;;23.60;59.55;100948.69;10441758;28;20120;-71
2023/08/26 12:15:25;;;;;;;1999.90;999.90;;;;;;;25.24;58.31;100940.88;10458968;28;20055;-71
2023/08/26 12:20:32;;;;;;;1999.90;999.90;;;;;;;23.69;58.78;100939.66;10441346;28;20090;-71
2023/08/26 12:25:36;;;;;;;1999.90;999.90;;;;;;;24.81;56.87;100936.84;10441159;28;20156;-71
2023/08/26 12:30:44;;;;;;;1999.90;999.90;;;;;;;26.48;52.38;100917.84;10441605;28;20064;-71
2023/08/26 12:35:46;;;;;;;1999.90;999.90;;;;;;;26.62;53.19;100921.50;10441472;28;20132;-72
2023/08/26 12:40:49;;;;;;;1999.90;999.90;;;;;;;27.17;53.78;100916.47;10458829;28;20053;-72
2023/08/26 12:45:52;;;;;;;1999.90;999.90;;;;;;;28.67;50.26;100922.22;10440406;28;20075;-72
2023/08/26 12:50:54;;;;;;;1999.90;999.90;;;;;;;28.50;49.71;100918.25;10440213;28;20088;-72
2023/08/26 12:55:58;;;;;;;1999.90;999.90;;;;;;;27.28;49.10;100914.25;10439870;28;20051;-71
2023/08/26 13:01:00;;;;;;;1999.90;999.90;;;;;;;27.18;52.62;100906.53;10458072;28;20139;-72
2023/08/26 13:06:03;;;;;;;1999.90;999.90;;;;;;;27.67;49.72;100920.97;10424276;28;20045;-71
2023/08/26 13:11:05;;;;;;;1999.90;999.90;;;;;;;26.78;51.22;100908.88;10457230;28;20053;-72
2023/08/26 13:16:07;;;;;;;1999.90;999.90;;;;;;;27.49;51.30;100916.09;10423131;28;20055;-72
2023/08/26 13:21:12;;;;;;;1999.90;999.90;;;;;;;26.42;52.85;100913.25;10457429;28;20057;-71
2023/08/26 13:26:15;;;;;;;1999.90;999.90;;;;;;;24.83;54.35;100920.59;10456672;28;20053;-71
2023/08/26 13:31:17;;;;;;;1999.90;999.90;;;;;;;24.53;54.88;100922.25;10457177;28;20045;-72
2023/08/26 13:36:20;;;;;;;1999.90;999.90;;;;;;;23.41;58.52;100920.50;10438604;28;20052;-72
2023/08/26 13:41:22;;;;;;;1999.90;999.90;;;;;;;23.67;56.19;100925.63;10422905;28;20128;-71
2023/08/26 13:46:29;;;;;;;1999.90;999.90;;;;;;;25.22;52.57;100916.94;10439035;28;20441;-72
2023/08/26 13:51:31;;;;;;;1999.90;999.90;;;;;;;24.17;56.70;100914.78;10439003;28;20080;-72
2023/08/26 13:56:34;;;;;;;1999.90;999.90;;;;;;;23.74;58.60;100915.09;10456513;28;20056;-72
2023/08/26 14:01:36;;;;;;;1999.90;999.90;;;;;;;25.50;54.86;100917.22;10455826;28;20600;-72
2023/08/26 14:06:39;;;;;;;1999.90;999.90;;;;;;;26.13;52.07;100911.47;10456352;28;20045;-71
2023/08/26 14:11:43;;;;;;;1999.90;999.90;;;;;;;25.65;54.94;100905.66;10455925;28;20485;-72
2023/08/26 14:16:45;;;;;;;1999.90;999.90;;;;;;;23.98;56.92;100916.88;10455266;28;20147;-71
2023/08/26 14:21:47;;;;;;;1999.90;999.90;;;;;;;23.84;58.79;100917.56;10456081;28;20049;-71
2023/08/26 14:26:50;;;;;;;1999.90;999.90;;;;;;;24.73;57.65;100907.47;10464021;28;20063;-71
2023/08/26 14:31:52;;;;;;;1999.90;999.90;;;;;;;24.56;55.08;100897.84;10452700;22;20660;-71
2023/08/26 14:36:54;;;;;;;1999.90;999.90;;;;;;;24.09;57.55;100908.47;10463702;28;20047;-71
2023/08/26 14:41:57;;;;;;;1999.90;999.90;;;;;;;24.07;57.26;100909.63;10445871;28;20045;-71
2023/08/26 14:46:59;;;;;;;1999.90;999.90;;;;;;;25.06;55.78;100903.69;10445138;28;20569;-71
2023/08/26 14:52:02;;;;;;;1999.90;999.90;;;;;;;25.55;53.89;100897.88;10445127;28;20059;-71
2023/08/26 14:57:06;;;;;;;1999.90;999.90;;;;;;;24.00;54.77;100895.31;10462408;28;20049;-71
2023/08/26 15:02:12;;;;;;;1999.90;999.90;;;;;;;23.67;56.75;100900.72;10462130;28;20103;-71
2023/08/26 15:07:14;;;;;;;1999.90;999.90;;;;;;;25.30;53.79;100883.88;10444990;28;20118;-71
2023/08/26 15:12:18;;;;;;;1999.90;999.90;;;;;;;24.59;57.03;100876.09;10444001;28;20481;-71
2023/08/26 15:17:20;;;;;;;1999.90;999.90;;;;;;;23.69;58.39;100894.22;10462148;28;20049;-71
2023/08/26 15:22:22;;;;;;;1999.90;999.90;;;;;;;23.68;55.92;100886.38;10443698;28;20465;-71
2023/08/26 15:27:25;;;;;;;1999.90;999.90;;;;;;;22.88;60.41;100884.44;10443608;28;20071;-71
2023/08/26 15:32:27;;;;;;;1999.90;999.90;;;;;;;23.04;58.84;100896.97;10460978;28;20053;-71
2023/08/26 15:37:30;;;;;;;1999.90;999.90;;;;;;;22.66;60.63;100905.44;10426632;28;20394;-71
2023/08/26 15:42:33;;;;;;;1999.90;999.90;;;;;;;21.89;65.26;100911.69;10461280;28;20125;-71
2023/08/26 15:47:35;;;;;;;1999.90;999.90;;;;;;;20.80;71.85;100922.69;10443729;28;20041;-71
2023/08/26 15:52:38;;;;;;;1999.90;999.90;;;;;;;20.08;75.34;100932.34;10460841;28;20056;-70
2023/08/26 15:57:42;;;;;;;1999.90;999.90;;;;;;;20.44;79.53;100933.25;10459909;28;20375;-71
2023/08/26 16:02:44;;;;;;;1999.90;999.90;;;;;;;20.17;79.90;100939.41;10443019;28;20052;-71
2023/08/26 16:07:47;;;;;;;1999.90;999.90;;;;;;;20.23;78.96;100933.53;10459548;28;20390;-71
2023/08/26 16:12:50;;;;;;;1999.90;999.90;;;;;;;19.63;83.66;100933.84;10459441;28;20481;-71
2023/08/26 16:17:52;;;;;;;1999.90;999.90;;;;;;;19.64;84.29;100924.91;10460233;28;20053;-71
2023/08/26 16:22:55;;;;;;;1999.90;999.90;;;;;;;20.20;83.80;100913.38;10459895;28;20045;-71
2023/08/26 16:27:57;;;;;;;1999.90;999.90;;;;;;;19.89;83.83;100911.97;10458785;28;20469;-71
2023/08/26 16:33:01;;;;;;;1999.90;999.90;;;;;;;20.04;82.62;100910.53;10458607;28;20131;-71
2023/08/26 16:38:06;;;;;;;1999.90;999.90;;;;;;;20.50;80.78;100926.50;10441578;28;20045;-71
2023/08/26 16:43:09;;;;;;;1999.90;999.90;;;;;;;19.97;81.30;100926.22;10458827;28;20135;-71
2023/08/26 16:48:11;;;;;;;1999.90;999.90;;;;;;;19.71;80.91;100933.16;10457029;28;20063;-71
2023/08/26 16:53:13;;;;;;;1999.90;999.90;;;;;;;19.52;84.90;100931.34;10457839;28;20053;-70
2023/08/26 16:58:16;;;;;;;1999.90;999.90;;;;;;;19.39;89.65;100931.69;10457673;28;20128;-71
2023/08/26 17:03:18;;;;;;;1999.90;999.90;;;;;;;19.76;88.77;100936.22;10457609;28;20480;-71
2023/08/26 17:08:21;;;;;;;1999.90;999.90;;;;;;;19.36;90.63;100932.78;10440371;28;20052;-71
2023/08/26 17:13:26;;;;;;;1999.90;999.90;;;;;;;19.31;94.29;100935.84;10440090;28;20162;-70
2023/08/26 17:18:29;;;;;;;1999.90;999.90;;;;;;;19.35;92.14;100932.91;10457524;28;20129;-70
2023/08/26 17:23:31;;;;;;;1999.90;999.90;;;;;;;19.06;86.31;100934.66;10439156;28;20063;-70
2023/08/26 17:28:33;;;;;;;1999.90;999.90;;;;;;;18.99;89.02;100930.84;10456602;28;20052;-70
2023/08/26 17:33:36;;;;;;;1999.90;999.90;;;;;;;18.77;90.34;100921.31;10439204;28;20052;-70
2023/08/26 17:38:38;;;;;;;1999.90;999.90;;;;;;;18.14;93.23;100932.19;10456286;28;20500;-70
2023/08/26 17:43:41;;;;;;;1999.90;999.90;;;;;;;18.45;95.96;100933.00;10456874;28;20057;-70
2023/08/26 17:48:43;;;;;;;1999.90;999.90;;;;;;;18.48;96.04;100934.56;10456952;28;20049;-70
2023/08/26 17:53:45;;;;;;;1999.90;999.90;;;;;;;18.66;94.30;100934.69;10456670;28;20048;-70
2023/08/26 17:58:47;;;;;;;1999.90;999.90;;;;;;;18.53;94.79;100940.28;10441672;28;20120;-70
2023/08/26 18:03:50;;;;;;;1999.90;999.90;;;;;;;18.25;95.83;100941.88;10465004;28;20127;-69
2023/08/26 18:08:52;;;;;;;1999.90;999.90;;;;;;;17.90;97.65;100940.47;10464842;28;20045;-69
2023/08/26 18:13:54;;;;;;;1999.90;999.90;;;;;;;17.90;99.34;100956.34;10465142;28;20049;-69
2023/08/26 18:18:57;;;;;;;1999.90;999.90;;;;;;;17.78;100.00;100961.69;10464505;28;20041;-69
2023/08/26 18:23:59;;;;;;;1999.90;999.90;;;;;;;17.64;100.00;100970.81;10446195;28;20127;-69
2023/08/26 18:29:02;;;;;;;1999.90;999.90;;;;;;;17.50;100.00;100970.31;10463447;28;20487;-69
2023/08/26 18:34:06;;;;;;;1999.90;999.90;;;;;;;17.29;100.00;100979.06;10463705;28;20064;-69
2023/08/26 18:39:08;;;;;;;1999.90;999.90;;;;;;;17.15;100.00;100982.88;10446272;28;20132;-69
2023/08/26 18:44:10;;;;;;;1999.90;999.90;;;;;;;16.95;100.00;100981.84;10463510;28;20478;-69
2023/08/26 18:49:13;;;;;;;1999.90;999.90;;;;;;;16.69;100.00;100978.63;10463332;28;20051;-69
2023/08/26 18:54:15;;;;;;;1999.90;999.90;;;;;;;16.35;100.00;100979.50;10444783;28;20051;-69
2023/08/26 18:59:17;;;;;;;1999.90;999.90;;;;;;;16.40;100.00;100994.19;10462884;28;20049;-69
2023/08/26 19:04:20;;;;;;;1999.90;999.90;;;;;;;16.17;100.00;100991.53;10445065;28;20056;-69
2023/08/26 19:09:22;;;;;;;1999.90;999.90;;;;;;;16.15;100.00;100996.94;10461432;28;20045;-69
2023/08/26 19:14:24;;;;;;;1999.90;999.90;;;;;;;16.13;100.00;101000.66;10461702;28;20521;-69
2023/08/26 19:19:27;;;;;;;1999.90;999.90;;;;;;;16.07;100.00;101007.25;10462248;28;20044;-69
2023/08/26 19:24:29;;;;;;;1999.90;999.90;;;;;;;16.26;100.00;101014.59;10461368;28;20079;-69
2023/08/26 19:29:32;;;;;;;1999.90;999.90;;;;;;;16.16;100.00;101018.91;10461531;28;20041;-69
2023/08/26 19:34:34;;;;;;;1999.90;999.90;;;;;;;16.04;100.00;101019.84;10461603;28;20048;-68
2023/08/26 19:39:37;;;;;;;1999.90;999.90;;;;;;;16.17;100.00;101015.28;10460653;28;20059;-68
2023/08/26 19:44:39;;;;;;;1999.90;999.90;;;;;;;16.13;100.00;101012.06;10460546;28;20053;-68
2023/08/26 19:49:41;;;;;;;1999.90;999.90;;;;;;;16.21;100.00;101019.41;10461216;28;20073;-68
2023/08/26 19:54:44;;;;;;;1999.90;999.90;;;;;;;16.18;100.00;100998.50;10442509;28;20057;-68
2023/08/26 19:59:49;;;;;;;1999.90;999.90;;;;;;;15.92;100.00;100995.22;10459860;28;20478;-69
2023/08/26 20:04:51;;;;;;;1999.90;999.90;;;;;;;15.70;100.00;100996.00;10443390;28;20136;-69
2023/08/26 20:09:55;;;;;;;1999.90;999.90;;;;;;;15.66;100.00;100981.34;10459608;28;20473;-68
2023/08/26 20:15:03;;;;;;;1999.90;999.90;;;;;;;15.44;100.00;100987.41;10442404;28;20052;-68
2023/08/26 20:20:07;;;;;;;1999.90;999.90;;;;;;;15.48;100.00;100988.84;10442894;28;20049;-68
2023/08/26 20:25:09;;;;;;;1999.90;999.90;;;;;;;15.48;100.00;100983.56;10459378;28;20136;-68
2023/08/26 20:30:12;;;;;;;1999.90;999.90;;;;;;;15.54;100.00;100976.03;10459085;28;20092;-68
2023/08/26 20:35:15;;;;;;;1999.90;999.90;;;;;;;15.55;100.00;100985.66;10458469;28;20497;-68
2023/08/26 20:40:17;;;;;;;1999.90;999.90;;;;;;;15.52;100.00;100977.13;10441387;28;20049;-68
2023/08/26 20:45:20;;;;;;;1999.90;999.90;;;;;;;15.55;100.00;100980.38;10458792;28;20064;-68
2023/08/26 20:50:22;;;;;;;1999.90;999.90;;;;;;;15.75;100.00;100972.72;10440803;28;20474;-68
2023/08/26 20:55:24;;;;;;;1999.90;999.90;;;;;;;15.82;100.00;100981.03;10440850;28;20055;-68
2023/08/26 21:00:27;;;;;;;1999.90;999.90;;;;;;;15.89;100.00;100982.28;10458215;28;20049;-68
2023/08/26 21:05:30;;;;;;;1999.90;999.90;;;;;;;15.66;100.00;100976.06;10457489;28;20536;-68
2023/08/26 21:10:33;;;;;;;1999.90;999.90;;;;;;;15.65;100.00;100967.31;10457943;28;20103;-68
2023/08/26 21:15:36;;;;;;;1999.90;999.90;;;;;;;15.49;100.00;100966.81;10456970;28;20401;-68
2023/08/26 21:20:39;;;;;;;1999.90;999.90;;;;;;;15.26;100.00;100965.88;10457604;28;20052;-68
2023/08/26 21:25:42;;;;;;;1999.90;999.90;;;;;;;15.29;100.00;100973.56;10457382;28;20062;-69
2023/08/26 21:30:44;;;;;;;1999.90;999.90;;;;;;;15.22;100.00;100963.47;10456486;28;20487;-69
2023/08/26 21:35:47;;;;;;;1999.90;999.90;;;;;;;15.15;100.00;100964.88;10455759;28;20051;-69
2023/08/26 21:40:50;;;;;;;1999.90;999.90;;;;;;;14.93;100.00;100973.53;10439555;28;20048;-69
2023/08/26 21:45:52;;;;;;;1999.90;999.90;;;;;;;15.01;100.00;100972.94;10456798;28;20049;-69